Time;durP1;ratioP1;P1;durP2;ratioP2;P2;SDS_P1;SDS_P2;PMS_P1;PMS_P2;Temp;Humidity;BMP_temperature;BMP_pressure;BME280_temperature;BME280_humidity;BME280_pressure;Samples;Min_cycle;Max_cycle;Signal;HPM_P1;HPM_P2
2024/04/01 00:03:27;;;;;;;2.97;0.15;;;;;;;14.82;61.36;98217.84;10409015;28;20053;-57
2024/04/01 00:08:27;;;;;;;4.85;0.80;;;;;;;14.91;61.25;98214.66;10408133;28;20046;-58
2024/04/01 00:13:28;;;;;;;1.75;1.05;;;;;;;14.97;61.37;98194.69;10413837;28;20910;-56
2024/04/01 00:18:28;;;;;;;1.15;0.20;;;;;;;14.98;60.88;98199.84;10404812;28;20064;-56
2024/04/01 00:23:29;;;;;;;3.55;0.38;;;;;;;14.93;61.08;98196.28;10417709;28;20048;-56
2024/04/01 00:28:29;;;;;;;2.70;0.30;;;;;;;14.90;61.00;98185.97;10403667;28;20077;-56
2024/04/01 00:33:30;;;;;;;2.97;0.43;;;;;;;14.89;61.01;98187.88;10410613;28;20053;-58
2024/04/01 00:38:30;;;;;;;2.13;0.30;;;;;;;14.80;61.35;98206.44;10409239;28;20048;-57
2024/04/01 00:43:30;;;;;;;1.92;0.40;;;;;;;14.79;61.20;98172.38;10407170;28;20050;-57
2024/04/01 00:48:31;;;;;;;3.03;0.50;;;;;;;14.68;61.80;98173.34;10415483;28;20498;-56
2024/04/01 00:53:32;;;;;;;3.13;1.05;;;;;;;14.60;62.21;98171.94;10410573;28;20048;-56
2024/04/01 00:58:33;;;;;;;2.15;0.50;;;;;;;14.54;62.36;98178.31;10415535;28;20089;-57
2024/04/01 01:03:35;;;;;;;3.65;0.40;;;;;;;14.16;63.65;98136.03;10408730;28;20049;-56
2024/04/01 01:08:36;;;;;;;4.50;1.05;;;;;;;13.81;65.00;98151.59;10411415;28;20029;-56
2024/04/01 01:13:37;;;;;;;7.15;1.05;;;;;;;13.57;65.57;98153.72;10413677;28;20064;-57
2024/04/01 01:18:37;;;;;;;3.85;0.90;;;;;;;13.64;65.63;98157.03;10407022;28;20048;-56
2024/04/01 01:23:38;;;;;;;7.65;0.70;;;;;;;13.77;65.38;98144.25;10407403;28;20077;-56
2024/04/01 01:28:39;;;;;;;5.43;1.10;;;;;;;13.82;65.49;98141.59;10404986;28;20045;-57
2024/04/01 01:33:39;;;;;;;6.68;1.70;;;;;;;13.89;65.42;98118.72;10409514;28;20099;-57
2024/04/01 01:38:40;;;;;;;7.20;1.15;;;;;;;13.90;65.72;98100.63;10408344;28;20110;-58
2024/04/01 01:43:42;;;;;;;4.78;0.75;;;;;;;13.95;65.69;98094.50;10390620;28;20045;-58
2024/04/01 01:48:43;;;;;;;10.07;1.50;;;;;;;13.99;65.75;98088.31;10404247;28;20089;-57
2024/04/01 01:53:43;;;;;;;8.50;1.35;;;;;;;13.88;65.82;98082.00;10405066;28;20052;-57
2024/04/01 01:58:44;;;;;;;8.07;1.00;;;;;;;13.91;66.16;98086.06;10407906;28;20684;-57
2024/04/01 02:03:44;;;;;;;6.18;1.08;;;;;;;13.88;66.43;98078.47;10404780;28;20562;-57
2024/04/01 02:08:45;;;;;;;6.10;0.75;;;;;;;13.74;67.10;98110.44;10407278;28;20051;-58
2024/04/01 02:13:45;;;;;;;4.07;0.52;;;;;;;13.62;67.46;98150.25;10404124;28;20045;-58
2024/04/01 02:18:47;;;;;;;1.88;0.40;;;;;;;13.36;68.24;98125.63;10408589;28;20487;-58
2024/04/01 02:23:47;;;;;;;0.80;0.43;;;;;;;13.36;68.31;98128.31;10404433;28;20048;-58
2024/04/01 02:28:49;;;;;;;2.13;0.40;;;;;;;13.30;68.90;98132.03;10407220;28;20056;-60
2024/04/01 02:33:49;;;;;;;1.35;0.40;;;;;;;13.24;69.58;98112.22;10406598;28;20056;-60
2024/04/01 02:38:50;;;;;;;2.28;0.30;;;;;;;13.23;69.60;98104.34;10405157;28;20049;-58
2024/04/01 02:43:50;;;;;;;5.38;0.50;;;;;;;13.14;70.23;98089.69;10407221;28;20053;-58
2024/04/01 02:48:51;;;;;;;3.42;0.73;;;;;;;13.14;70.67;98051.91;10406780;28;20037;-56
2024/04/01 02:53:52;;;;;;;5.53;0.68;;;;;;;13.01;70.95;98024.25;10407382;28;20487;-60
2024/04/01 02:58:52;;;;;;;1.80;0.50;;;;;;;12.88;71.22;97982.28;10402350;28;20037;-57
2024/04/01 03:03:58;;;;;;;6.22;1.75;;;;;;;12.64;72.27;97964.69;10406935;28;20049;-57
2024/04/01 03:09:00;;;;;;;2.88;1.10;;;;;;;12.45;73.41;97983.81;10407551;28;20143;-57
2024/04/01 03:14:00;;;;;;;11.13;1.67;;;;;;;12.59;72.72;97997.75;10410587;28;20037;-57
2024/04/01 03:19:01;;;;;;;6.68;1.25;;;;;;;12.77;72.34;98028.22;10402643;28;20041;-57
2024/04/01 03:24:02;;;;;;;8.90;1.50;;;;;;;12.65;72.74;98039.91;10404414;28;20045;-56
2024/04/01 03:29:02;;;;;;;7.35;1.60;;;;;;;12.75;72.72;98028.44;10411270;28;20045;-57
2024/04/01 03:34:02;;;;;;;4.70;1.48;;;;;;;12.93;72.05;98056.22;10411885;28;20123;-57
2024/04/01 03:39:04;;;;;;;9.40;1.40;;;;;;;12.83;72.68;98040.69;10415551;28;20041;-58
2024/04/01 03:44:04;;;;;;;11.43;1.30;;;;;;;12.66;73.30;98024.56;10412546;28;20045;-57
2024/04/01 03:49:05;;;;;;;7.85;2.03;;;;;;;12.65;73.17;97998.66;10415867;28;20048;-57
2024/04/01 03:54:06;;;;;;;4.60;0.80;;;;;;;12.52;73.63;97937.84;10414555;28;20038;-57
2024/04/01 03:59:08;;;;;;;2.75;0.63;;;;;;;12.43;73.82;97934.75;10406196;28;20045;-58
2024/04/01 04:04:08;;;;;;;8.32;0.50;;;;;;;12.27;74.19;97935.59;10408702;28;20072;-57
2024/04/01 04:09:18;;;;;;;3.55;0.30;;;;;;;12.29;74.33;97936.97;10410727;28;20041;-57
2024/04/01 04:14:20;;;;;;;1.55;0.52;;;;;;;12.43;74.23;97917.78;10409871;28;20083;-57
2024/04/01 04:19:20;;;;;;;1.95;0.20;;;;;;;12.44;74.35;97954.41;10414969;28;20044;-58
2024/04/01 04:24:24;;;;;;;1.77;0.15;;;;;;;12.56;73.88;97982.09;10407732;28;20052;-57
2024/04/01 04:29:25;;;;;;;4.38;0.28;;;;;;;12.57;73.78;97964.84;10402869;28;20060;-56
2024/04/01 04:34:25;;;;;;;0.30;0.10;;;;;;;12.65;73.61;97967.13;10411761;28;20083;-56
2024/04/01 04:39:26;;;;;;;0.40;0.38;;;;;;;12.73;73.47;97963.19;10407622;28;20042;-57
2024/04/01 04:44:26;;;;;;;2.63;0.20;;;;;;;12.78;73.65;97979.44;10416085;28;20049;-57
2024/04/01 04:49:29;;;;;;;0.15;0.10;;;;;;;12.86;72.93;97989.78;10415588;28;20044;-57
2024/04/01 04:54:30;;;;;;;1.67;0.30;;;;;;;12.92;73.32;97971.00;10410256;28;20581;-56
2024/04/01 04:59:33;;;;;;;0.22;0.10;;;;;;;12.88;73.50;97974.19;10411781;28;20198;-57
2024/04/01 05:04:34;;;;;;;0.40;0.10;;;;;;;12.78;74.05;97998.31;10411121;28;20040;-61
2024/04/01 05:09:35;;;;;;;0.38;0.10;;;;;;;12.77;74.09;97990.47;10408610;28;20395;-60
2024/04/01 05:14:35;;;;;;;2.28;0.20;;;;;;;12.90;73.64;97982.84;10412093;28;20449;-59
2024/04/01 05:19:36;;;;;;;1.88;0.10;;;;;;;12.57;74.97;97996.38;10405947;28;20033;-60
2024/04/01 05:24:36;;;;;;;0.30;0.10;;;;;;;12.51;74.89;97982.03;10406477;28;20489;-59
2024/04/01 05:29:37;;;;;;;0.40;0.10;;;;;;;12.56;75.01;97986.66;10404806;28;20471;-59
2024/04/01 05:34:37;;;;;;;1.13;0.10;;;;;;;12.28;75.78;97988.41;10407234;28;20508;-59
2024/04/01 05:39:38;;;;;;;0.50;0.10;;;;;;;12.24;75.85;97985.41;10405814;28;20045;-58
2024/04/01 05:44:38;;;;;;;0.63;0.10;;;;;;;12.27;76.16;97998.38;10408485;28;20048;-59
2024/04/01 05:49:39;;;;;;;1.02;0.20;;;;;;;12.27;76.13;98019.09;10400160;28;20033;-59
2024/04/01 05:54:39;;;;;;;1.08;0.10;;;;;;;12.35;75.87;98042.94;10406548;28;20041;-59
2024/04/01 05:59:40;;;;;;;1.83;0.20;;;;;;;12.49;75.75;98055.03;10406277;28;20454;-59
2024/04/01 06:04:40;;;;;;;2.45;0.20;;;;;;;12.51;76.09;98070.94;10407273;28;20730;-59
2024/04/01 06:09:41;;;;;;;2.78;0.63;;;;;;;12.62;75.70;98071.94;10404746;28;20853;-67
2024/04/01 06:14:42;;;;;;;2.67;0.60;;;;;;;12.63;75.84;98066.28;10410564;28;20500;-61
2024/04/01 06:19:43;;;;;;;5.47;1.08;;;;;;;12.79;76.20;98074.63;10400445;28;20041;-61
2024/04/01 06:24:43;;;;;;;1.65;0.70;;;;;;;12.86;76.00;98072.56;10394381;28;20069;-62
2024/04/01 06:29:44;;;;;;;3.05;0.93;;;;;;;12.83;76.33;98065.78;10409122;28;20044;-61
2024/04/01 06:34:47;;;;;;;7.95;0.70;;;;;;;12.87;75.71;98060.72;10402833;28;20447;-62
2024/04/01 06:39:47;;;;;;;1.75;1.00;;;;;;;12.67;76.40;98067.41;10410242;28;20041;-64
2024/04/01 06:44:49;;;;;;;4.80;0.73;;;;;;;12.50;76.92;98059.34;10402176;28;20056;-63
2024/04/01 06:49:50;;;;;;;3.65;0.82;;;;;;;12.36;77.52;98076.06;10400409;28;20063;-66
2024/04/01 06:54:51;;;;;;;6.30;1.33;;;;;;;12.30;77.62;98072.47;10405122;28;20052;-66
2024/04/01 06:59:51;;;;;;;3.22;0.80;;;;;;;12.31;78.11;98084.91;10412141;28;20052;-68
2024/04/01 07:04:52;;;;;;;4.60;1.55;;;;;;;12.19;78.41;98094.94;10416510;28;20051;-66
2024/04/01 07:09:53;;;;;;;1.77;0.45;;;;;;;12.13;79.02;98109.38;10414450;28;20080;-65
2024/04/01 07:14:53;;;;;;;1.45;0.50;;;;;;;12.15;78.92;98116.13;10417064;28;20053;-67
2024/04/01 07:19:54;;;;;;;2.38;0.50;;;;;;;12.21;78.69;98125.94;10400187;28;20052;-66
2024/04/01 07:24:54;;;;;;;1.00;0.40;;;;;;;12.33;78.43;98133.97;10414585;28;20044;-61
2024/04/01 07:29:55;;;;;;;1.92;0.50;;;;;;;12.41;77.72;98128.19;10445878;28;20111;-65
2024/04/01 07:34:56;;;;;;;1.05;0.52;;;;;;;12.41;78.31;98140.84;10464671;28;20088;-65
2024/04/01 07:39:56;;;;;;;5.28;0.30;;;;;;;12.42;78.39;98148.69;10465041;28;20027;-64
2024/04/01 07:44:57;;;;;;;1.75;0.57;;;;;;;12.37;78.52;98148.59;10476872;22;20052;-86
2024/04/01 07:49:58;;;;;;;2.45;0.70;;;;;;;12.40;78.70;98148.13;10446586;28;20098;-84
2024/04/01 07:54:59;;;;;;;0.70;0.40;;;;;;;12.52;78.56;98141.81;10461465;28;20122;-84
2024/04/01 08:00:00;;;;;;;0.60;0.40;;;;;;;12.49;78.83;98153.91;10479425;22;20052;-69
2024/04/01 08:05:00;;;;;;;5.43;1.02;;;;;;;12.40;78.94;98153.50;10461393;28;20045;-69
2024/04/01 08:10:03;;;;;;;1.45;0.50;;;;;;;12.35;79.28;98166.06;10466425;28;20049;-71
2024/04/01 08:15:05;;;;;;;1.90;0.50;;;;;;;12.46;79.01;98166.00;10450746;28;20049;-62
2024/04/01 08:20:05;;;;;;;0.90;0.40;;;;;;;12.56;78.69;98173.44;10447177;28;20051;-61
2024/04/01 08:25:07;;;;;;;1.13;0.30;;;;;;;12.59;78.47;98170.25;10437714;28;20040;-62
2024/04/01 08:30:08;;;;;;;0.60;0.40;;;;;;;12.60;78.70;98188.06;10437687;28;20044;-62
2024/04/01 08:35:08;;;;;;;1.60;0.95;;;;;;;12.64;78.74;98191.09;10444040;28;20059;-64
2024/04/01 08:40:10;;;;;;;0.93;0.30;;;;;;;12.65;78.76;98209.72;10427884;28;20755;-61
2024/04/01 08:45:13;;;;;;;1.70;0.25;;;;;;;12.69;78.32;98205.47;10448027;28;20585;-62
2024/04/01 08:50:24;;;;;;;0.30;0.20;;;;;;;12.71;78.68;98216.00;10427997;28;20088;-61
2024/04/01 08:55:26;;;;;;;0.50;0.20;;;;;;;12.76;78.46;98226.91;10448669;28;20155;-62
2024/04/01 09:00:26;;;;;;;1.02;0.10;;;;;;;12.68;78.43;98219.22;10455134;28;20496;-62
2024/04/01 09:05:27;;;;;;;0.63;0.17;;;;;;;12.67;78.50;98231.03;10445895;28;20131;-62
2024/04/01 09:10:28;;;;;;;0.70;0.17;;;;;;;12.78;78.33;98238.25;10443279;28;20072;-61
2024/04/01 09:15:29;;;;;;;0.15;0.10;;;;;;;12.72;78.05;98257.25;10444306;28;20045;-61
2024/04/01 09:20:29;;;;;;;1.05;0.10;;;;;;;12.75;77.77;98251.41;10442156;28;20045;-60
2024/04/01 09:25:30;;;;;;;0.65;0.20;;;;;;;12.65;77.99;98258.22;10444223;28;20431;-61
2024/04/01 09:30:30;;;;;;;1.17;0.10;;;;;;;12.70;77.76;98257.53;10449266;28;20045;-60
2024/04/01 09:35:31;;;;;;;0.80;0.20;;;;;;;12.58;77.61;98268.34;10448851;28;20049;-61
2024/04/01 09:40:32;;;;;;;0.08;0.08;;;;;;;12.66;77.69;98280.63;10443598;28;20496;-59
2024/04/01 09:45:36;;;;;;;1.55;0.10;;;;;;;12.78;76.80;98277.88;10443905;28;20464;-65
2024/04/01 09:50:37;;;;;;;1.77;0.10;;;;;;;12.79;76.88;98277.63;10441326;28;20097;-65
2024/04/01 09:56:01;;;;;;;0.68;0.13;;;;;;;12.93;76.03;98283.53;10438709;28;20041;-63
2024/04/01 10:01:22;;;;;;;1.67;0.10;;;;;;;12.81;75.88;98307.03;10444250;28;20045;-65
2024/04/01 10:06:53;;;;;;;0.95;0.20;;;;;;;12.85;75.57;98327.06;10446475;28;20053;-66
2024/04/01 10:12:27;;;;;;;0.20;0.00;;;;;;;12.79;75.54;98331.53;10442768;28;20491;-67
2024/04/01 10:18:01;;;;;;;0.15;0.10;;;;;;;12.87;75.44;98349.22;10440087;28;20040;-66
2024/04/01 10:23:32;;;;;;;0.65;0.10;;;;;;;12.77;74.93;98360.63;10425478;28;20051;-65
2024/04/01 10:28:36;;;;;;;0.22;0.13;;;;;;;12.75;74.52;98365.44;10437468;28;20044;-64
2024/04/01 10:33:53;;;;;;;0.40;0.10;;;;;;;12.88;73.91;98375.16;10444147;28;20041;-62
2024/04/01 10:39:38;;;;;;;0.30;0.10;;;;;;;12.80;74.17;98389.81;10440084;28;20078;-64
2024/04/01 10:45:14;;;;;;;0.45;0.40;;;;;;;12.73;73.96;98389.13;10437770;28;20049;-65
2024/04/01 10:50:39;;;;;;;0.00;0.00;;;;;;;12.68;73.55;98410.59;10336902;28;20513;-64
2024/04/01 10:56:18;;;;;;;0.57;0.20;;;;;;;12.70;73.63;98432.75;10440506;28;20090;-64
2024/04/01 11:01:47;;;;;;;0.75;0.43;;;;;;;12.88;73.13;98431.78;10439220;28;20049;-66
2024/04/01 11:07:06;;;;;;;0.70;0.10;;;;;;;13.08;72.99;98439.44;10433129;28;20094;-64
2024/04/01 11:12:25;;;;;;;2.08;0.47;;;;;;;13.14;72.85;98451.16;10441184;28;20041;-64
2024/04/01 11:17:26;;;;;;;1.80;0.10;;;;;;;12.98;72.69;98458.13;10439605;28;20067;-64
2024/04/01 11:23:02;;;;;;;1.85;0.13;;;;;;;13.01;72.96;98463.03;10440612;28;20049;-64
2024/04/01 11:28:24;;;;;;;0.73;0.10;;;;;;;13.02;72.88;98464.69;10440517;28;20045;-62
2024/04/01 11:33:30;;;;;;;0.22;0.10;;;;;;;13.01;72.92;98457.63;10438051;28;20049;-64
2024/04/01 11:38:53;;;;;;;0.20;0.20;;;;;;;12.96;72.91;98460.25;10437516;28;20049;-62
2024/04/01 11:43:54;;;;;;;0.35;0.30;;;;;;;12.76;73.33;98469.53;10430063;28;20044;-63
2024/04/01 11:48:55;;;;;;;0.55;0.20;;;;;;;12.69;73.45;98474.22;10453910;28;20028;-63
2024/04/01 11:53:56;;;;;;;0.47;0.30;;;;;;;12.61;73.85;98482.69;10442070;28;20045;-63
2024/04/01 11:58:58;;;;;;;0.45;0.30;;;;;;;12.37;74.37;98498.84;10443417;28;20094;-63
2024/04/01 12:03:58;;;;;;;0.60;0.38;;;;;;;12.17;75.09;98515.34;10433534;28;20059;-60
2024/04/01 12:09:01;;;;;;;2.15;0.50;;;;;;;11.93;75.60;98527.94;10444870;28;20095;-59
2024/04/01 12:14:05;;;;;;;0.85;0.38;;;;;;;11.78;76.82;98535.59;10447851;28;20098;-58
2024/04/01 12:19:08;;;;;;;2.33;0.40;;;;;;;11.85;77.37;98528.25;10444866;28;20516;-60
2024/04/01 12:24:09;;;;;;;0.70;0.45;;;;;;;12.09;77.42;98527.28;10444058;28;20055;-61
2024/04/01 12:29:14;;;;;;;0.32;0.20;;;;;;;12.25;77.54;98550.03;10443947;28;20051;-59
2024/04/01 12:34:15;;;;;;;0.68;0.30;;;;;;;12.46;77.38;98550.50;10445125;28;20060;-59
2024/04/01 12:39:16;;;;;;;0.20;0.10;;;;;;;12.30;77.64;98573.56;10438873;28;20059;-59
2024/04/01 12:44:18;;;;;;;0.10;0.00;;;;;;;11.83;77.90;98601.16;10443123;28;20474;-61
2024/04/01 12:49:20;;;;;;;0.38;0.00;;;;;;;11.44;78.15;98614.03;10443089;28;20064;-59
2024/04/01 12:54:45;;;;;;;0.00;0.00;;;;;;;11.06;78.10;98647.34;10444553;28;20080;-60
2024/04/01 13:00:07;;;;;;;0.00;0.00;;;;;;;10.73;77.74;98657.56;10443422;28;20102;-60
2024/04/01 13:05:22;;;;;;;0.40;0.00;;;;;;;10.85;76.13;98666.56;10444389;28;20045;-68
2024/04/01 13:10:27;;;;;;;0.10;0.00;;;;;;;11.08;75.43;98680.22;10444059;28;20041;-68
2024/04/01 13:16:05;;;;;;;0.20;0.00;;;;;;;11.31;74.38;98694.88;10460701;28;20055;-65
2024/04/01 13:21:20;;;;;;;0.38;0.00;;;;;;;11.91;73.58;98715.84;10486189;28;20035;-67
2024/04/01 13:26:46;;;;;;;0.43;0.00;;;;;;;11.85;73.12;98727.47;10484141;28;20060;-68
2024/04/01 13:31:59;;;;;;;1.25;0.00;;;;;;;11.97;72.51;98744.53;10485025;28;20109;-66
2024/04/01 13:37:18;;;;;;;1.17;0.00;;;;;;;11.98;70.64;98769.59;10506138;28;20064;-66
2024/04/01 13:42:33;;;;;;;0.05;0.00;;;;;;;11.82;70.16;98801.41;10497220;28;20037;-66
2024/04/01 13:47:37;;;;;;;1.38;0.10;;;;;;;11.78;69.87;98802.91;10497606;28;20117;-66
2024/04/01 13:53:10;;;;;;;1.17;0.00;;;;;;;11.90;68.86;98790.38;10483054;28;20052;-67
2024/04/01 13:58:49;;;;;;;1.30;0.00;;;;;;;12.16;67.81;98798.41;10484253;28;20041;-58
2024/04/01 14:04:24;;;;;;;0.47;0.10;;;;;;;12.34;67.74;98806.47;10456108;28;20049;-61
2024/04/01 14:09:48;;;;;;;0.57;0.10;;;;;;;12.57;67.63;98808.47;10455591;28;20052;-60
2024/04/01 14:15:15;;;;;;;0.20;0.20;;;;;;;12.79;67.98;98824.16;10460785;28;20052;-58
2024/04/01 14:20:26;;;;;;;0.77;0.20;;;;;;;12.64;68.30;98828.09;10452075;28;20053;-59
2024/04/01 14:25:27;;;;;;;1.33;0.20;;;;;;;12.68;68.46;98837.38;10452802;28;20056;-59
2024/04/01 14:30:28;;;;;;;1.92;0.10;;;;;;;12.61;68.27;98828.53;10454110;28;20056;-60
2024/04/01 14:35:29;;;;;;;0.57;0.10;;;;;;;12.74;68.19;98835.63;10449802;28;20056;-58
2024/04/01 14:40:33;;;;;;;0.30;0.10;;;;;;;12.68;68.49;98841.94;10454377;28;20059;-58
2024/04/01 14:45:34;;;;;;;1.27;0.15;;;;;;;12.98;68.03;98846.53;10452009;28;20490;-58
2024/04/01 14:50:36;;;;;;;0.82;0.10;;;;;;;12.96;67.72;98846.75;10450573;28;20044;-61
2024/04/01 14:55:39;;;;;;;0.70;0.30;;;;;;;12.92;68.12;98856.34;10439750;28;20468;-59
2024/04/01 15:00:40;;;;;;;0.40;0.20;;;;;;;13.00;68.29;98866.81;10450178;28;20473;-58
2024/04/01 15:05:45;;;;;;;0.65;0.30;;;;;;;12.97;68.09;98871.84;10442924;28;20086;-62
2024/04/01 15:10:54;;;;;;;1.95;0.20;;;;;;;12.98;68.25;98878.91;10448045;28;20040;-60
2024/04/01 15:15:59;;;;;;;1.60;0.20;;;;;;;12.87;68.61;98869.69;10447838;28;20103;-60
2024/04/01 15:21:00;;;;;;;3.28;0.57;;;;;;;12.98;68.41;98876.19;10456736;28;20045;-58
2024/04/01 15:26:01;;;;;;;0.30;0.20;;;;;;;13.03;68.13;98874.47;10457852;28;20044;-60
2024/04/01 15:31:02;;;;;;;0.45;0.10;;;;;;;13.04;68.33;98881.50;10466236;28;20043;-61
2024/04/01 15:36:04;;;;;;;0.75;0.20;;;;;;;12.93;69.14;98881.44;10451480;28;20047;-62
2024/04/01 15:41:05;;;;;;;0.60;0.20;;;;;;;13.15;69.11;98888.00;10448877;28;20044;-62
2024/04/01 15:46:05;;;;;;;1.67;0.20;;;;;;;13.26;68.88;98895.28;10448519;28;20045;-62
2024/04/01 15:51:06;;;;;;;0.55;0.20;;;;;;;13.67;68.11;98887.47;10446430;28;20118;-63
2024/04/01 15:56:06;;;;;;;2.85;0.30;;;;;;;14.09;67.73;98877.38;10441322;28;20040;-62
2024/04/01 16:01:08;;;;;;;0.25;0.20;;;;;;;15.15;65.57;98867.41;10428555;28;20095;-61
2024/04/01 16:06:11;;;;;;;0.28;0.10;;;;;;;15.49;65.15;98860.16;10422854;28;20045;-62
2024/04/01 16:11:12;;;;;;;0.75;0.20;;;;;;;15.50;64.81;98860.97;10447058;28;20048;-62
2024/04/01 16:16:15;;;;;;;1.00;0.10;;;;;;;15.37;64.96;98871.06;10450689;28;20474;-61
2024/04/01 16:21:21;;;;;;;3.97;0.20;;;;;;;15.36;64.44;98872.09;10423703;28;20091;-62
2024/04/01 16:26:23;;;;;;;1.05;0.20;;;;;;;15.97;63.43;98858.78;10445365;28;20055;-62
2024/04/01 16:31:25;;;;;;;1.95;0.10;;;;;;;16.35;62.56;98865.31;10446686;28;20113;-69
2024/04/01 16:36:26;;;;;;;0.32;0.15;;;;;;;16.18;62.82;98859.91;10441376;28;20631;-64
2024/04/01 16:41:26;;;;;;;0.57;0.10;;;;;;;15.74;63.60;98867.06;10442583;28;20049;-68
2024/04/01 16:46:27;;;;;;;0.20;0.10;;;;;;;15.51;63.70;98866.16;10453848;28;20056;-71
2024/04/01 16:51:28;;;;;;;0.15;0.10;;;;;;;15.33;63.78;98877.22;10446793;28;20040;-69
2024/04/01 16:56:29;;;;;;;0.20;0.10;;;;;;;15.15;64.31;98875.53;10443328;28;20037;-65
2024/04/01 17:01:29;;;;;;;0.75;0.30;;;;;;;15.06;63.91;98877.78;10441385;28;20119;-67
2024/04/01 17:06:31;;;;;;;1.30;0.30;;;;;;;14.95;64.19;98881.34;10448550;28;20059;-65
2024/04/01 17:11:32;;;;;;;1.88;0.30;;;;;;;14.86;64.26;98884.44;10440184;28;20049;-65
2024/04/01 17:16:35;;;;;;;1.40;0.20;;;;;;;14.71;64.54;98888.72;10435493;28;20383;-63
2024/04/01 17:21:36;;;;;;;0.75;0.50;;;;;;;14.61;64.93;98887.47;10439284;28;20045;-62
2024/04/01 17:32:53;;;;;;;3.40;0.30;;;;;;;14.40;65.37;98901.59;10457227;28;20064;-63
2024/04/01 17:37:54;;;;;;;0.70;0.30;;;;;;;14.25;65.38;98902.88;10426164;28;20052;-65
2024/04/01 17:42:55;;;;;;;1.10;0.32;;;;;;;14.04;65.76;98898.91;10422194;28;20058;-64
2024/04/01 17:47:56;;;;;;;0.35;0.20;;;;;;;13.88;65.78;98907.66;10423825;28;20045;-65
2024/04/01 17:52:56;;;;;;;0.45;0.30;;;;;;;13.74;66.01;98922.44;10422291;28;20128;-63
2024/04/01 17:57:57;;;;;;;1.88;0.43;;;;;;;13.38;66.90;98921.53;10426084;28;20041;-64
2024/04/01 18:02:59;;;;;;;3.22;0.77;;;;;;;12.86;68.54;98928.19;10442712;28;20694;-63
2024/04/01 18:08:02;;;;;;;2.47;0.43;;;;;;;12.44;69.82;98946.06;10439014;28;20041;-64
2024/04/01 18:13:03;;;;;;;10.90;0.80;;;;;;;12.09;70.36;98950.13;10435811;28;20063;-60
2024/04/01 18:18:06;;;;;;;1.00;0.57;;;;;;;11.84;71.39;98949.28;10439582;28;20048;-59
2024/04/01 18:23:07;;;;;;;1.92;0.40;;;;;;;11.47;72.67;98962.56;10439517;28;20127;-61
2024/04/01 18:28:08;;;;;;;1.25;0.30;;;;;;;11.40;72.67;98962.63;10450350;28;20083;-58
2024/04/01 18:33:13;;;;;;;0.35;0.30;;;;;;;11.35;72.79;98964.28;10421588;28;20094;-58
2024/04/01 18:38:14;;;;;;;1.10;0.40;;;;;;;11.35;73.01;98962.41;10437527;28;20059;-59
2024/04/01 18:43:23;;;;;;;3.40;0.30;;;;;;;11.42;72.90;98968.59;10437397;28;20044;-59
2024/04/01 18:48:25;;;;;;;1.83;0.50;;;;;;;11.51;72.21;98970.00;10436970;28;20423;-58
2024/04/01 18:53:25;;;;;;;2.15;0.75;;;;;;;11.54;72.46;98974.13;10439076;28;20062;-60
2024/04/01 18:58:26;;;;;;;2.30;0.95;;;;;;;11.56;72.32;98984.69;10441559;28;20147;-61
2024/04/01 19:03:26;;;;;;;1.40;0.50;;;;;;;11.56;72.91;98990.06;10439408;28;20095;-57
2024/04/01 19:08:27;;;;;;;2.47;0.50;;;;;;;11.57;72.70;98991.69;10438072;28;20051;-58
2024/04/01 19:13:27;;;;;;;1.50;0.40;;;;;;;11.56;73.18;99000.81;10434968;28;20055;-59
2024/04/01 19:18:28;;;;;;;1.50;0.50;;;;;;;11.56;73.24;98996.25;10434261;28;20053;-58
2024/04/01 19:23:28;;;;;;;1.58;0.50;;;;;;;11.62;73.55;99008.03;10436292;28;20547;-59
2024/04/01 19:28:29;;;;;;;1.48;0.45;;;;;;;11.59;73.69;99011.13;10434633;28;20052;-58
2024/04/01 19:33:29;;;;;;;0.90;0.40;;;;;;;11.62;73.78;99022.31;10441585;28;20048;-58
2024/04/01 19:38:30;;;;;;;2.35;0.65;;;;;;;11.62;73.36;99019.63;10435307;28;20443;-58
2024/04/01 19:43:31;;;;;;;0.93;0.30;;;;;;;11.67;73.41;99035.97;10442042;28;20041;-58
2024/04/01 19:48:32;;;;;;;1.77;0.40;;;;;;;11.69;73.45;99033.88;10440240;28;20063;-60
2024/04/01 19:53:32;;;;;;;2.00;0.45;;;;;;;11.67;73.33;99041.34;10436796;28;20053;-59
2024/04/01 19:58:36;;;;;;;2.75;0.35;;;;;;;11.72;73.58;99046.06;10422932;28;20090;-61
2024/04/01 20:03:44;;;;;;;0.57;0.30;;;;;;;11.70;73.51;99048.16;10440398;28;20044;-58
2024/04/01 20:08:44;;;;;;;1.42;0.35;;;;;;;11.65;73.48;99050.66;10436938;28;20329;-59
2024/04/01 20:13:45;;;;;;;1.05;0.32;;;;;;;11.55;73.66;99044.91;10446302;28;20055;-58
2024/04/01 20:18:46;;;;;;;1.17;0.40;;;;;;;11.47;73.65;99057.59;10443837;28;20045;-57
2024/04/01 20:23:46;;;;;;;1.35;0.52;;;;;;;11.46;74.01;99068.56;10447771;28;20451;-57
2024/04/01 20:28:47;;;;;;;4.05;0.70;;;;;;;11.48;73.70;99061.91;10439124;28;20109;-59
2024/04/01 20:33:50;;;;;;;1.38;0.60;;;;;;;11.42;73.74;99065.47;10444921;28;20443;-61
2024/04/01 20:38:51;;;;;;;2.90;0.52;;;;;;;11.34;74.07;99056.81;10444875;28;20033;-58
2024/04/01 20:43:57;;;;;;;1.77;0.60;;;;;;;11.23;73.69;99067.19;10445497;28;20048;-58
2024/04/01 20:48:58;;;;;;;3.42;0.50;;;;;;;11.15;74.32;99072.78;10464753;28;20044;-57
2024/04/01 20:53:59;;;;;;;2.50;0.60;;;;;;;11.07;74.13;99071.16;10425692;28;20118;-60
2024/04/01 20:59:16;;;;;;;1.23;0.57;;;;;;;11.03;74.18;99079.88;10442590;28;20546;-60
2024/04/01 21:04:19;;;;;;;2.42;0.60;;;;;;;10.96;73.84;99084.41;10443336;28;20573;-59
2024/04/01 21:09:21;;;;;;;1.00;0.60;;;;;;;10.95;74.38;99082.78;10444809;28;20060;-61
2024/04/01 21:14:22;;;;;;;1.38;0.50;;;;;;;10.94;73.93;99089.19;10444964;28;20052;-60
2024/04/01 21:19:23;;;;;;;0.98;0.70;;;;;;;10.96;73.81;99098.72;10442405;28;20048;-60
2024/04/01 21:24:23;;;;;;;3.65;0.98;;;;;;;10.91;74.40;99099.31;10443713;28;20514;-59
2024/04/01 21:29:24;;;;;;;1.88;0.70;;;;;;;10.96;74.34;99103.25;10440944;28;20647;-57
2024/04/01 21:34:24;;;;;;;1.00;0.60;;;;;;;11.05;74.37;99108.19;10438899;28;20094;-56
2024/04/01 21:39:25;;;;;;;0.70;0.50;;;;;;;11.00;74.79;99115.22;10440805;28;20036;-57
2024/04/01 21:44:26;;;;;;;2.85;0.63;;;;;;;10.91;74.44;99109.25;10441013;28;20065;-56
2024/04/01 21:49:26;;;;;;;0.95;0.57;;;;;;;10.81;74.73;99101.63;10444877;28;20431;-56
2024/04/01 21:54:27;;;;;;;3.72;0.60;;;;;;;10.71;74.97;99103.91;10443824;28;20072;-56
2024/04/01 21:59:27;;;;;;;1.92;0.40;;;;;;;10.72;74.99;99110.91;10436012;28;20056;-56
2024/04/01 22:04:29;;;;;;;2.88;0.73;;;;;;;10.67;74.83;99119.59;10428468;28;20416;-56
2024/04/01 22:09:30;;;;;;;0.98;0.57;;;;;;;10.68;73.96;99128.50;10439169;28;20044;-57
2024/04/01 22:14:30;;;;;;;1.23;0.52;;;;;;;10.57;74.78;99131.81;10443230;28;20067;-59
2024/04/01 22:19:31;;;;;;;0.90;0.50;;;;;;;10.50;74.92;99129.09;10444786;28;20484;-58
2024/04/01 22:24:31;;;;;;;5.57;0.60;;;;;;;10.48;74.85;99133.88;10442099;28;20647;-58
2024/04/01 22:29:31;;;;;;;1.73;0.63;;;;;;;10.43;74.91;99126.44;10440087;28;20407;-59
2024/04/01 22:34:32;;;;;;;3.47;0.70;;;;;;;10.40;74.94;99129.50;10441041;28;20098;-58
2024/04/01 22:39:33;;;;;;;3.95;0.68;;;;;;;10.40;75.19;99129.50;10442464;28;20078;-59
2024/04/01 22:44:37;;;;;;;1.92;0.55;;;;;;;10.38;75.30;99128.88;10438865;28;20083;-59
2024/04/01 22:49:37;;;;;;;0.82;0.45;;;;;;;10.38;75.34;99139.63;10433936;28;20037;-59
2024/04/01 22:54:38;;;;;;;4.35;0.60;;;;;;;10.35;75.38;99145.44;10444715;28;20048;-58
2024/04/01 22:59:39;;;;;;;0.90;0.57;;;;;;;10.27;75.24;99149.09;10436256;28;20416;-58
2024/04/01 23:04:39;;;;;;;1.08;0.60;;;;;;;10.22;75.28;99151.56;10443227;28;20101;-59
2024/04/01 23:09:40;;;;;;;1.25;0.60;;;;;;;10.21;75.55;99157.97;10440717;28;20135;-60
2024/04/01 23:14:40;;;;;;;1.33;0.50;;;;;;;10.19;75.60;99156.50;10437749;28;20049;-60
2024/04/01 23:19:41;;;;;;;1.48;0.60;;;;;;;10.08;75.73;99158.75;10440205;28;20041;-61
2024/04/01 23:24:41;;;;;;;1.65;0.60;;;;;;;10.07;75.68;99165.19;10442563;28;20044;-60
2024/04/01 23:29:41;;;;;;;3.30;0.60;;;;;;;10.01;75.64;99170.50;10439481;28;20052;-58
2024/04/01 23:34:42;;;;;;;1.50;0.50;;;;;;;9.98;76.04;99176.28;10437860;28;20044;-57
2024/04/01 23:39:45;;;;;;;1.90;0.50;;;;;;;9.92;75.77;99176.06;10437291;28;20068;-58